createdAt,value
2022-10-23T00:00:14.689Z,100.00
2022-10-23T00:03:08.407Z,100.00
2022-10-23T00:05:42.119Z,100.00
2022-10-23T00:08:15.734Z,100.00
2022-10-23T00:10:46.228Z,100.00
2022-10-23T00:13:16.600Z,100.00
2022-10-23T00:15:49.790Z,100.00
2022-10-23T00:18:21.670Z,100.00
2022-10-23T00:20:52.080Z,100.00
2022-10-23T00:23:22.523Z,100.00
2022-10-23T00:25:53.985Z,100.00
2022-10-23T00:28:24.497Z,100.00
2022-10-23T00:30:55.267Z,100.00
2022-10-23T00:33:26.767Z,100.00
2022-10-23T00:35:57.319Z,100.00
2022-10-23T00:38:28.321Z,100.00
2022-10-23T00:40:58.897Z,100.00
2022-10-23T00:43:30.467Z,100.00
2022-10-23T00:46:06.469Z,100.00
2022-10-23T00:48:38.143Z,100.00
2022-10-23T00:51:13.777Z,100.00
2022-10-23T00:53:46.245Z,100.00
2022-10-23T00:56:16.790Z,100.00
2022-10-23T00:58:47.335Z,100.00
2022-10-23T01:01:20.136Z,100.00
2022-10-23T01:03:51.552Z,100.00
2022-10-23T01:06:28.300Z,100.00
2022-10-23T01:09:03.154Z,100.00
2022-10-23T01:11:38.507Z,100.00
2022-10-23T01:14:13.854Z,100.00
2022-10-23T01:16:47.982Z,100.00
2022-10-23T01:19:23.166Z,100.00
2022-10-23T01:21:57.274Z,100.00
2022-10-23T01:24:37.726Z,100.00
2022-10-23T01:27:19.165Z,100.00
2022-10-23T01:29:53.578Z,100.00
2022-10-23T01:32:36.558Z,100.00
2022-10-23T01:35:13.930Z,100.00
2022-10-23T01:37:46.510Z,100.00
2022-10-23T01:40:24.387Z,100.00
2022-10-23T01:42:56.635Z,100.00
2022-10-23T01:45:33.978Z,100.00
2022-10-23T01:48:09.154Z,100.00
2022-10-23T01:50:42.164Z,100.00
2022-10-23T01:53:12.844Z,100.00
2022-10-23T01:55:44.591Z,100.00
2022-10-23T01:58:22.275Z,100.00
2022-10-23T02:00:55.247Z,100.00
2022-10-23T02:03:28.241Z,100.00
2022-10-23T02:05:59.264Z,100.00
2022-10-23T02:08:29.797Z,100.00
2022-10-23T02:11:06.209Z,100.00
2022-10-23T02:13:40.434Z,100.00
2022-10-23T02:16:20.960Z,100.00
2022-10-23T02:18:58.113Z,100.00
2022-10-23T02:21:31.893Z,100.00
2022-10-23T02:24:04.448Z,100.00
2022-10-23T02:26:37.998Z,100.00
2022-10-23T02:29:13.790Z,100.00
2022-10-23T02:31:46.311Z,100.00
2022-10-23T02:34:17.206Z,100.00
2022-10-23T02:36:47.885Z,100.00
2022-10-23T02:39:18.469Z,100.00
2022-10-23T02:41:52.799Z,100.00
2022-10-23T02:44:27.088Z,100.00
2022-10-23T02:47:04.963Z,100.00
2022-10-23T02:49:39.004Z,100.00
2022-10-23T02:52:16.065Z,100.00
2022-10-23T02:54:52.382Z,100.00
2022-10-23T02:57:27.622Z,100.00
2022-10-23T03:00:03.258Z,100.00
2022-10-23T03:02:41.189Z,100.00
2022-10-23T03:05:13.890Z,100.00
2022-10-23T03:07:46.074Z,100.00
2022-10-23T03:10:19.965Z,100.00
2022-10-23T03:12:50.999Z,100.00
2022-10-23T03:15:23.458Z,100.00
2022-10-23T03:17:56.558Z,100.00
2022-10-23T03:20:28.201Z,100.00
2022-10-23T03:22:58.905Z,100.00
2022-10-23T03:25:33.023Z,100.00
2022-10-23T03:28:03.482Z,100.00
2022-10-23T03:30:37.717Z,100.00
2022-10-23T03:33:13.973Z,100.00
2022-10-23T03:35:44.438Z,100.00
2022-10-23T03:38:18.233Z,100.00
2022-10-23T03:40:49.412Z,100.00
2022-10-23T03:43:19.926Z,100.00
2022-10-23T03:45:52.138Z,100.00
2022-10-23T03:48:24.380Z,100.00
2022-10-23T03:51:00.771Z,100.00
2022-10-23T03:53:32.410Z,100.00
2022-10-23T03:56:06.009Z,100.00
2022-10-23T03:58:37.326Z,100.00
2022-10-23T04:01:08.302Z,100.00
2022-10-23T04:03:39.397Z,100.00
2022-10-23T04:06:11.236Z,100.00
2022-10-23T04:08:43.814Z,100.00
2022-10-23T04:11:18.933Z,100.00
2022-10-23T04:13:49.971Z,100.00
2022-10-23T04:16:20.969Z,100.00
2022-10-23T04:18:55.517Z,100.00
2022-10-23T04:22:14.816Z,100.00
2022-10-23T04:24:46.895Z,100.00
2022-10-23T04:27:22.372Z,100.00
2022-10-23T04:29:55.518Z,100.00
2022-10-23T04:32:29.127Z,100.00
2022-10-23T04:34:59.540Z,100.00
2022-10-23T04:37:33.664Z,100.00
2022-10-23T04:40:04.204Z,100.00
2022-10-23T04:42:38.759Z,100.00
2022-10-23T04:45:09.942Z,100.00
2022-10-23T04:47:40.738Z,100.00
2022-10-23T04:50:11.327Z,100.00
2022-10-23T04:53:00.509Z,100.00
2022-10-23T04:56:01.456Z,100.00
2022-10-23T04:58:52.761Z,100.00
2022-10-23T05:01:23.456Z,100.00
2022-10-23T05:03:56.785Z,100.00
2022-10-23T05:06:27.483Z,100.00
2022-10-23T05:09:14.916Z,100.00
2022-10-23T05:12:13.840Z,100.00
2022-10-23T05:14:44.416Z,100.00
2022-10-23T05:17:17.461Z,100.00
2022-10-23T05:19:51.056Z,100.00
2022-10-23T05:22:23.948Z,100.00
2022-10-23T05:24:56.329Z,100.00
2022-10-23T05:27:30.156Z,100.00
2022-10-23T05:30:00.859Z,100.00
2022-10-23T05:32:34.592Z,100.00
2022-10-23T05:35:08.554Z,100.00
2022-10-23T05:37:41.130Z,100.00
2022-10-23T05:48:52.426Z,100.00
2022-10-23T05:52:13.556Z,100.00
2022-10-23T05:55:27.196Z,100.00
2022-10-23T06:03:14.501Z,100.00
2022-10-23T06:05:52.655Z,100.00
2022-10-23T06:08:25.750Z,100.00
2022-10-23T06:11:08.688Z,100.00
2022-10-23T06:14:27.566Z,100.00
2022-10-23T06:17:30.174Z,100.00
2022-10-23T06:20:02.619Z,100.00
2022-10-23T06:23:06.510Z,100.00
2022-10-23T06:39:22.522Z,100.00
2022-10-23T06:47:10.618Z,100.00
2022-10-23T06:54:54.011Z,100.00
2022-10-23T07:02:46.233Z,99.98
2022-10-23T07:05:17.421Z,99.98
2022-10-23T07:07:54.045Z,100.00
2022-10-23T07:10:28.322Z,99.98
2022-10-23T07:13:08.781Z,99.99
2022-10-23T07:20:20.342Z,99.89
2022-10-23T07:27:17.127Z,99.23
2022-10-23T07:29:54.163Z,99.24
2022-10-23T07:32:24.797Z,99.41
2022-10-23T07:35:41.377Z,99.17
2022-10-23T07:42:51.137Z,97.55
2022-10-23T07:49:10.889Z,96.95
2022-10-23T07:51:41.814Z,97.79
2022-10-23T07:54:19.405Z,99.03
2022-10-23T08:00:58.811Z,96.04
2022-10-23T08:03:32.886Z,93.85
2022-10-23T08:10:35.950Z,90.44
2022-10-23T08:26:37.799Z,86.27
2022-10-23T08:29:14.878Z,86.23
2022-10-23T08:31:45.539Z,88.16
2022-10-23T08:39:12.910Z,77.25
2022-10-23T08:46:37.096Z,77.12
2022-10-23T08:50:00.597Z,74.73
2022-10-23T08:57:05.165Z,70.23
2022-10-23T09:04:21.386Z,68.21
2022-10-23T09:06:56.891Z,68.12
2022-10-23T09:15:04.293Z,68.32
2022-10-23T09:17:37.986Z,68.99
2022-10-23T09:20:14.125Z,68.91
2022-10-23T09:22:44.743Z,68.88
2022-10-23T09:25:18.655Z,69.71
2022-10-23T09:27:53.296Z,69.85
2022-10-23T09:30:34.231Z,69.40
2022-10-23T09:33:14.893Z,68.99
2022-10-23T09:35:54.571Z,67.29
2022-10-23T09:38:28.656Z,65.18
2022-10-23T09:40:59.993Z,65.04
2022-10-23T09:43:30.722Z,64.77
2022-10-23T09:46:07.323Z,63.22
2022-10-23T09:48:39.236Z,61.92
2022-10-23T09:51:17.821Z,60.72
2022-10-23T09:53:53.405Z,60.19
2022-10-23T09:56:27.652Z,59.15
2022-10-23T09:58:58.773Z,59.23
2022-10-23T10:01:30.813Z,58.77
2022-10-23T10:04:15.995Z,58.53
2022-10-23T10:06:46.444Z,58.04
2022-10-23T10:09:18.077Z,57.35
2022-10-23T10:11:51.592Z,56.97
2022-10-23T10:14:34.253Z,56.04
2022-10-23T10:17:07.449Z,55.49
2022-10-23T10:19:48.048Z,55.52
2022-10-23T10:22:27.176Z,54.75
2022-10-23T10:25:01.444Z,53.75
2022-10-23T10:27:40.175Z,52.97
2022-10-23T10:30:15.103Z,52.00
2022-10-23T10:32:49.392Z,52.67
2022-10-23T10:35:24.806Z,53.00
2022-10-23T10:38:03.426Z,51.56
2022-10-23T10:40:35.290Z,49.60
2022-10-23T10:43:14.316Z,48.77
2022-10-23T10:45:48.128Z,47.72
2022-10-23T10:48:26.129Z,47.55
2022-10-23T10:51:21.146Z,46.58
2022-10-23T10:54:02.086Z,45.32
2022-10-23T10:56:35.647Z,45.92
2022-10-23T10:59:13.400Z,45.35
2022-10-23T11:01:46.984Z,45.29
2022-10-23T11:04:22.485Z,45.49
2022-10-23T11:06:54.215Z,45.93
2022-10-23T11:09:27.629Z,46.34
2022-10-23T11:11:58.448Z,46.65
2022-10-23T11:14:30.271Z,47.59
2022-10-23T11:17:03.424Z,48.44
2022-10-23T11:19:38.982Z,48.86
2022-10-23T11:22:11.979Z,48.84
2022-10-23T11:24:51.463Z,49.49
2022-10-23T11:27:32.428Z,50.04
2022-10-23T11:30:19.337Z,50.74
2022-10-23T11:32:58.037Z,51.47
2022-10-23T11:35:42.868Z,52.30
2022-10-23T11:38:17.965Z,52.80
2022-10-23T11:40:56.653Z,53.30
2022-10-23T11:43:31.534Z,54.08
2022-10-23T11:46:14.269Z,55.04
2022-10-23T11:48:47.240Z,55.27
2022-10-23T11:51:30.983Z,54.99
2022-10-23T11:54:08.744Z,54.98
2022-10-23T11:56:39.687Z,54.81
2022-10-23T11:59:22.768Z,54.26
2022-10-23T12:01:55.512Z,53.31
2022-10-23T12:04:27.712Z,53.48
2022-10-23T12:06:59.984Z,54.16
2022-10-23T12:09:38.382Z,54.58
2022-10-23T12:12:27.349Z,55.26
2022-10-23T12:15:07.813Z,55.25
2022-10-23T12:17:40.291Z,54.65
2022-10-23T12:20:24.439Z,54.60
2022-10-23T12:23:02.826Z,53.80
2022-10-23T12:25:40.350Z,53.59
2022-10-23T12:28:15.594Z,52.55
2022-10-23T12:30:51.791Z,52.70
2022-10-23T12:33:27.452Z,51.68
2022-10-23T12:36:08.677Z,50.96
2022-10-23T12:38:43.540Z,50.28
2022-10-23T12:41:15.255Z,49.47
2022-10-23T12:43:52.614Z,49.63
2022-10-23T12:46:33.788Z,49.55
2022-10-23T12:49:05.824Z,49.55
2022-10-23T12:51:36.533Z,47.43
2022-10-23T12:54:15.862Z,47.61
2022-10-23T12:56:47.126Z,48.17
2022-10-23T12:59:19.446Z,48.42
2022-10-23T13:01:52.957Z,47.69
2022-10-23T13:04:29.843Z,48.51
2022-10-23T13:07:01.841Z,48.81
2022-10-23T13:09:34.968Z,49.00
2022-10-23T13:12:29.431Z,49.45
2022-10-23T13:15:03.595Z,49.29
2022-10-23T13:17:38.203Z,50.00
2022-10-23T13:20:12.603Z,50.20
2022-10-23T13:22:43.391Z,50.03
2022-10-23T13:25:24.953Z,49.88
2022-10-23T13:28:05.094Z,49.95
2022-10-23T13:30:38.197Z,50.10
2022-10-23T13:33:23.192Z,50.31
2022-10-23T13:36:01.892Z,51.02
2022-10-23T13:38:36.373Z,51.45
2022-10-23T13:41:11.519Z,51.95
2022-10-23T13:43:42.779Z,52.49
2022-10-23T13:46:16.282Z,52.75
2022-10-23T13:48:47.042Z,53.18
2022-10-23T13:51:21.906Z,53.34
2022-10-23T13:53:52.472Z,53.82
2022-10-23T13:56:23.701Z,54.21
2022-10-23T13:58:54.553Z,54.60
2022-10-23T14:01:27.435Z,55.11
2022-10-23T14:03:58.402Z,55.23
2022-10-23T14:06:28.774Z,55.27
2022-10-23T14:08:59.334Z,55.84
2022-10-23T14:11:30.115Z,56.34
2022-10-23T14:14:00.913Z,56.42
2022-10-23T14:16:31.370Z,56.67
2022-10-23T14:19:05.058Z,56.79
2022-10-23T14:21:36.137Z,57.30
2022-10-23T14:24:06.978Z,57.64
2022-10-23T14:26:40.737Z,58.00
2022-10-23T14:29:21.344Z,58.31
2022-10-23T14:32:42.530Z,58.74
2022-10-23T14:35:20.326Z,59.21
2022-10-23T14:38:24.550Z,59.71
2022-10-23T14:41:01.582Z,60.32
2022-10-23T14:47:21.317Z,60.95
2022-10-23T14:49:53.528Z,61.28
2022-10-23T14:56:24.458Z,61.98
2022-10-23T14:59:02.910Z,62.64
2022-10-23T15:01:34.867Z,62.86
2022-10-23T15:04:06.440Z,63.10
2022-10-23T15:06:37.261Z,63.32
2022-10-23T15:09:07.667Z,63.65
2022-10-23T15:11:38.131Z,63.94
2022-10-23T15:14:09.298Z,64.46
2022-10-23T15:16:41.772Z,64.51
2022-10-23T15:19:17.321Z,64.82
2022-10-23T15:21:49.796Z,64.84
2022-10-23T15:24:20.744Z,65.00
2022-10-23T15:26:51.920Z,65.18
2022-10-23T15:29:23.071Z,65.65
2022-10-23T15:31:58.600Z,65.60
2022-10-23T15:34:30.125Z,65.53
2022-10-23T15:37:01.011Z,65.80
2022-10-23T15:39:35.697Z,66.07
2022-10-23T15:43:06.045Z,66.32
2022-10-23T15:45:36.570Z,66.55
2022-10-23T15:48:07.644Z,66.67
2022-10-23T15:50:38.374Z,66.76
2022-10-23T15:53:08.708Z,66.89
2022-10-23T15:55:39.438Z,67.24
2022-10-23T15:58:09.708Z,67.27
2022-10-23T16:00:40.377Z,67.49
2022-10-23T16:03:12.030Z,67.67
2022-10-23T16:05:42.730Z,67.72
2022-10-23T16:08:16.971Z,67.85
2022-10-23T16:10:47.416Z,67.95
2022-10-23T16:13:17.729Z,68.34
2022-10-23T16:15:55.166Z,68.34
2022-10-23T16:18:25.654Z,68.29
2022-10-23T16:29:52.020Z,68.96
2022-10-23T16:32:50.814Z,68.80
2022-10-23T16:35:21.253Z,69.01
2022-10-23T16:38:33.294Z,69.17
2022-10-23T16:41:07.047Z,69.29
2022-10-23T16:48:56.457Z,69.68
2022-10-23T16:51:27.841Z,69.94
2022-10-23T16:53:58.432Z,70.23
2022-10-23T16:56:29.944Z,70.29
2022-10-23T17:03:13.722Z,70.58
2022-10-23T17:10:17.870Z,71.32
2022-10-23T17:12:53.559Z,71.43
2022-10-23T17:15:23.961Z,71.67
2022-10-23T17:17:54.328Z,71.50
2022-10-23T17:20:31.596Z,71.95
2022-10-23T17:23:01.987Z,71.88
2022-10-23T17:26:21.453Z,72.20
2022-10-23T17:28:51.924Z,73.14
2022-10-23T17:35:42.018Z,73.61
2022-10-23T17:38:12.518Z,74.17
2022-10-23T17:45:13.540Z,75.16
2022-10-23T17:47:47.847Z,75.61
2022-10-23T17:50:20.947Z,75.47
2022-10-23T17:52:51.402Z,75.99
2022-10-23T17:55:28.667Z,76.04
2022-10-23T17:57:59.320Z,76.27
2022-10-23T18:00:30.504Z,76.27
2022-10-23T18:03:15.501Z,76.33
2022-10-23T18:05:49.623Z,76.38
2022-10-23T18:12:51.431Z,77.61
2022-10-23T18:19:52.608Z,77.63
2022-10-23T18:22:33.196Z,77.56
2022-10-23T18:25:03.860Z,78.15
2022-10-23T18:31:18.924Z,78.19
2022-10-23T18:34:16.493Z,77.82
2022-10-23T18:36:54.869Z,77.78
2022-10-23T18:39:26.158Z,78.04
2022-10-23T18:46:27.703Z,77.92
2022-10-23T18:48:58.531Z,77.83
2022-10-23T18:51:36.209Z,78.14
2022-10-23T18:54:09.192Z,79.29
2022-10-23T19:12:53.358Z,79.44
2022-10-23T19:15:24.239Z,79.48
2022-10-23T19:18:03.258Z,79.50
2022-10-23T19:20:34.121Z,79.41
2022-10-23T19:27:38.585Z,79.67
2022-10-23T19:30:13.750Z,79.68
2022-10-23T19:33:45.038Z,79.51
2022-10-23T19:36:17.551Z,79.27
2022-10-23T19:38:49.194Z,79.40
2022-10-23T19:41:38.525Z,79.31
2022-10-23T19:44:08.999Z,79.23
2022-10-23T19:46:39.681Z,79.33
2022-10-23T19:49:16.868Z,79.17
2022-10-23T19:56:16.752Z,79.13
2022-10-23T20:03:41.983Z,79.75
2022-10-23T20:06:13.461Z,80.11
2022-10-23T20:08:47.737Z,80.16
2022-10-23T20:11:26.013Z,80.28
2022-10-23T20:13:57.280Z,80.37
2022-10-23T20:16:44.857Z,80.34
2022-10-23T20:26:22.546Z,81.36
2022-10-23T20:29:00.266Z,81.78
2022-10-23T20:32:09.145Z,82.28
2022-10-23T20:34:43.466Z,82.82
2022-10-23T20:37:59.231Z,83.07
2022-10-23T20:40:35.950Z,83.23
2022-10-23T20:43:08.895Z,83.13
2022-10-23T20:45:39.398Z,83.01
2022-10-23T20:48:09.809Z,82.85
2022-10-23T20:50:48.314Z,82.91
2022-10-23T20:57:51.831Z,82.84
2022-10-23T21:00:22.431Z,82.74
2022-10-23T21:06:51.576Z,82.69
2022-10-23T21:10:42.240Z,82.44
2022-10-23T21:16:54.171Z,82.44
2022-10-23T21:22:44.481Z,83.62
2022-10-23T21:25:15.150Z,84.41
2022-10-23T21:28:25.148Z,84.53
2022-10-23T21:30:55.609Z,84.38
2022-10-23T21:33:28.977Z,84.05
2022-10-23T21:45:46.127Z,85.31
2022-10-23T21:48:16.869Z,85.75
2022-10-23T21:55:19.761Z,86.13
2022-10-23T21:57:57.305Z,86.20
2022-10-23T22:00:27.989Z,86.50
2022-10-23T22:03:38.544Z,86.52
2022-10-23T22:06:10.199Z,85.91
2022-10-23T22:08:40.720Z,85.77
2022-10-23T22:11:20.027Z,86.21
2022-10-23T22:13:50.487Z,86.59
2022-10-23T22:16:28.494Z,86.37
2022-10-23T22:18:58.882Z,86.04
2022-10-23T22:21:37.229Z,86.21
2022-10-23T22:24:08.550Z,86.30
2022-10-23T22:26:46.963Z,86.54
2022-10-23T22:29:40.961Z,87.17
2022-10-23T22:32:11.570Z,87.23
2022-10-23T22:34:52.779Z,87.23
2022-10-23T22:37:23.633Z,87.51
2022-10-23T22:39:55.169Z,87.77
2022-10-23T22:42:32.004Z,87.77
2022-10-23T22:45:02.666Z,87.72
2022-10-23T22:47:33.464Z,87.61
2022-10-23T22:50:12.653Z,87.68
2022-10-23T22:52:43.529Z,87.49
2022-10-23T22:55:21.088Z,87.43
2022-10-23T22:57:51.684Z,87.56
2022-10-23T23:00:29.007Z,87.71
2022-10-23T23:03:01.918Z,87.27
2022-10-23T23:05:43.531Z,87.44
2022-10-23T23:09:05.141Z,87.29
2022-10-23T23:11:51.309Z,87.65
2022-10-23T23:14:36.241Z,87.70
2022-10-23T23:26:10.051Z,86.81
2022-10-23T23:29:07.544Z,86.60
2022-10-23T23:36:10.321Z,86.34
2022-10-23T23:38:41.377Z,86.25
2022-10-23T23:41:19.378Z,86.32
2022-10-23T23:43:49.828Z,86.31
2022-10-23T23:46:27.212Z,86.05
2022-10-23T23:48:57.636Z,85.82
2022-10-23T23:51:37.330Z,85.81
2022-10-23T23:58:26.365Z,85.67
